Time;durP1;ratioP1;P1;durP2;ratioP2;P2;SDS_P1;SDS_P2;PMS_P1;PMS_P2;Temp;Humidity;BMP_temperature;BMP_pressure;BME280_temperature;BME280_humidity;BME280_pressure;Samples;Min_cycle;Max_cycle;Signal;HPM_P1;HPM_P2
2022/03/03 00:00:26;;;;;;;24.97;17.53;;;0.40;99.90;;;;;;5117290;28;20176;-64
2022/03/03 00:02:52;;;;;;;26.03;17.93;;;0.40;99.90;;;;;;5117561;28;20593;-64
2022/03/03 00:05:18;;;;;;;26.50;17.23;;;0.40;99.90;;;;;;5117135;28;20194;-64
2022/03/03 00:07:44;;;;;;;28.00;18.40;;;0.30;99.90;;;;;;5117459;28;20180;-65
2022/03/03 00:10:10;;;;;;;24.90;17.63;;;0.20;99.90;;;;;;5117021;28;20518;-63
2022/03/03 00:12:37;;;;;;;26.40;18.07;;;0.10;99.90;;;;;;5117005;28;20199;-63
2022/03/03 00:15:03;;;;;;;22.73;17.03;;;0.10;99.90;;;;;;5117357;28;20657;-63
2022/03/03 00:17:29;;;;;;;27.80;17.97;;;0.00;99.90;;;;;;5116890;28;20173;-65
2022/03/03 00:19:54;;;;;;;24.77;17.90;;;-0.20;99.90;;;;;;5116821;28;20184;-65
2022/03/03 00:22:20;;;;;;;30.97;19.37;;;-0.10;99.90;;;;;;5115468;28;20172;-65
2022/03/03 00:24:46;;;;;;;24.90;18.17;;;-0.10;99.90;;;;;;5116776;28;20606;-65
2022/03/03 00:27:12;;;;;;;23.83;17.50;;;0.00;99.90;;;;;;5115447;28;20173;-64
2022/03/03 00:29:38;;;;;;;27.67;18.70;;;0.10;99.90;;;;;;5115314;28;20180;-64
2022/03/03 00:32:04;;;;;;;27.23;17.40;;;0.10;99.90;;;;;;5116558;28;20196;-64
2022/03/03 00:34:30;;;;;;;25.70;17.43;;;0.00;99.90;;;;;;5116753;28;20204;-64
2022/03/03 00:36:55;;;;;;;25.50;18.40;;;0.10;99.90;;;;;;5115662;28;20176;-64
2022/03/03 00:39:21;;;;;;;26.87;17.67;;;0.10;99.90;;;;;;5115707;28;20172;-65
2022/03/03 00:41:47;;;;;;;24.30;17.90;;;0.10;99.90;;;;;;5116494;28;20286;-65
2022/03/03 00:44:12;;;;;;;26.90;17.87;;;0.10;99.90;;;;;;5116426;28;20200;-64
2022/03/03 00:46:38;;;;;;;24.57;18.17;;;0.20;99.90;;;;;;5115123;28;20185;-64
2022/03/03 00:49:05;;;;;;;27.63;18.30;;;0.10;99.90;;;;;;5116302;28;20594;-64
2022/03/03 00:51:31;;;;;;;27.83;18.17;;;0.10;99.90;;;;;;5116226;28;20174;-64
2022/03/03 00:53:57;;;;;;;24.13;17.60;;;0.10;99.90;;;;;;5115991;28;20726;-64
2022/03/03 00:56:23;;;;;;;21.17;16.73;;;0.00;99.90;;;;;;5114847;28;20172;-64
2022/03/03 00:58:49;;;;;;;26.03;17.53;;;0.00;99.90;;;;;;5116093;28;20566;-64
2022/03/03 01:01:16;;;;;;;24.03;17.80;;;-0.10;99.90;;;;;;5116414;28;20297;-64
2022/03/03 01:03:42;;;;;;;25.70;17.13;;;-0.10;99.90;;;;;;5116182;28;20679;-64
2022/03/03 01:06:09;;;;;;;29.43;17.37;;;0.00;99.90;;;;;;5116668;28;20176;-64
2022/03/03 01:08:34;;;;;;;26.70;16.90;;;0.00;99.90;;;;;;5116112;28;20268;-64
2022/03/03 01:11:00;;;;;;;28.60;18.63;;;-0.20;99.90;;;;;;5117109;28;20228;-64
2022/03/03 01:13:26;;;;;;;29.13;17.27;;;-0.30;99.90;;;;;;5116826;28;20755;-64
2022/03/03 01:15:53;;;;;;;24.20;17.93;;;-0.30;99.90;;;;;;5117203;28;20176;-65
2022/03/03 01:18:20;;;;;;;22.10;16.30;;;-0.30;99.90;;;;;;5116825;28;20168;-64
2022/03/03 01:20:46;;;;;;;24.00;16.73;;;-0.30;99.90;;;;;;5116141;28;20173;-64
2022/03/03 01:23:11;;;;;;;28.43;18.17;;;-0.30;99.90;;;;;;5115844;28;20648;-64
2022/03/03 01:25:37;;;;;;;22.67;17.07;;;-0.30;99.90;;;;;;5115811;28;20233;-65
2022/03/03 01:28:03;;;;;;;24.13;18.00;;;-0.30;99.90;;;;;;5115620;28;20176;-64
2022/03/03 01:30:29;;;;;;;23.60;16.77;;;-0.20;99.90;;;;;;5114098;28;20259;-66
2022/03/03 01:32:55;;;;;;;26.73;18.40;;;-0.30;99.90;;;;;;5115284;28;20191;-64
2022/03/03 01:35:21;;;;;;;28.17;18.87;;;-0.50;99.90;;;;;;5115234;28;20195;-65
2022/03/03 01:37:46;;;;;;;25.43;17.10;;;-0.60;99.90;;;;;;5115408;28;20645;-64
2022/03/03 01:40:12;;;;;;;27.77;19.80;;;-0.50;99.90;;;;;;5115308;28;20255;-65
2022/03/03 01:42:39;;;;;;;28.30;18.33;;;-0.60;99.90;;;;;;5113804;28;20177;-65
2022/03/03 01:45:06;;;;;;;24.97;18.03;;;-0.60;99.90;;;;;;5115303;28;20653;-65
2022/03/03 01:47:32;;;;;;;29.60;17.80;;;-0.50;99.90;;;;;;5115784;28;20172;-64
2022/03/03 01:49:58;;;;;;;24.87;18.20;;;-0.50;99.90;;;;;;5114189;28;20202;-64
2022/03/03 01:52:24;;;;;;;23.73;16.70;;;-0.50;99.90;;;;;;5115273;28;20188;-65
2022/03/03 01:54:51;;;;;;;22.97;18.50;;;-0.50;99.90;;;;;;5115118;28;20257;-64
2022/03/03 01:57:18;;;;;;;26.53;18.53;;;-0.60;99.90;;;;;;5113764;28;20244;-64
2022/03/03 01:59:45;;;;;;;26.33;17.70;;;-0.50;99.90;;;;;;5115103;28;20221;-64
2022/03/03 02:02:11;;;;;;;24.70;17.50;;;-0.80;99.90;;;;;;5114941;28;20180;-64
2022/03/03 02:04:38;;;;;;;24.27;16.37;;;-0.70;99.90;;;;;;5113481;28;20732;-64
2022/03/03 02:07:05;;;;;;;22.70;16.90;;;-0.80;99.90;;;;;;5113526;28;20181;-65
2022/03/03 02:09:31;;;;;;;23.43;17.57;;;-0.80;99.90;;;;;;5114934;28;20176;-65
2022/03/03 02:11:56;;;;;;;25.27;17.70;;;-0.80;99.90;;;;;;5114661;28;20173;-64
2022/03/03 02:14:23;;;;;;;26.53;17.90;;;-1.00;99.90;;;;;;5114598;28;20231;-64
2022/03/03 02:16:49;;;;;;;24.70;17.03;;;-1.00;99.90;;;;;;5114558;28;20511;-64
2022/03/03 02:19:19;;;;;;;22.70;16.70;;;-0.80;99.90;;;;;;5114643;28;20183;-65
2022/03/03 02:21:51;;;;;;;23.73;17.53;;;-0.90;99.90;;;;;;5114855;28;20157;-65
2022/03/03 02:24:18;;;;;;;24.10;17.23;;;-0.90;99.90;;;;;;5115969;28;20203;-65
2022/03/03 02:26:44;;;;;;;23.10;18.03;;;-0.90;99.90;;;;;;5117434;28;20184;-64
2022/03/03 02:29:11;;;;;;;22.93;17.37;;;-0.90;99.90;;;;;;5116415;28;20229;-64
2022/03/03 02:31:36;;;;;;;26.37;17.90;;;-1.00;99.90;;;;;;5117060;28;20279;-64
2022/03/03 02:34:02;;;;;;;24.70;17.27;;;-0.90;99.90;;;;;;5113033;28;20291;-65
2022/03/03 02:36:29;;;;;;;24.83;18.07;;;-0.80;99.90;;;;;;5114416;28;20172;-64
2022/03/03 02:38:57;;;;;;;23.60;17.77;;;-0.80;99.90;;;;;;5115375;28;20173;-64
2022/03/03 02:41:24;;;;;;;24.07;17.63;;;-0.70;99.90;;;;;;5114583;28;20202;-64
2022/03/03 02:43:50;;;;;;;25.20;17.90;;;-0.80;99.90;;;;;;5114748;28;20203;-64
2022/03/03 02:46:17;;;;;;;25.53;17.20;;;-0.80;99.90;;;;;;5114477;28;20637;-64
2022/03/03 02:48:43;;;;;;;28.70;17.63;;;-0.90;99.90;;;;;;5114432;28;20172;-64
2022/03/03 02:51:09;;;;;;;24.23;17.67;;;-1.00;99.90;;;;;;5114557;28;20173;-64
2022/03/03 02:53:35;;;;;;;27.83;18.47;;;-1.00;99.90;;;;;;5112401;28;20207;-63
2022/03/03 02:56:03;;;;;;;30.30;18.33;;;-1.10;99.90;;;;;;5114827;28;20165;-64
2022/03/03 02:58:28;;;;;;;24.10;17.93;;;-1.10;99.90;;;;;;5112992;28;20542;-64
2022/03/03 03:00:55;;;;;;;23.57;17.83;;;-1.10;99.90;;;;;;5113989;28;20251;-64
2022/03/03 03:03:21;;;;;;;28.47;18.23;;;-1.10;99.90;;;;;;5114015;28;20232;-63
2022/03/03 03:05:47;;;;;;;22.97;17.37;;;-1.10;99.90;;;;;;5114136;28;20183;-64
2022/03/03 03:08:14;;;;;;;24.27;18.37;;;-1.20;99.90;;;;;;5114096;28;20168;-64
2022/03/03 03:10:40;;;;;;;28.50;17.60;;;-1.00;99.90;;;;;;5114054;28;20222;-64
2022/03/03 03:13:07;;;;;;;21.70;16.27;;;-1.20;99.90;;;;;;5114050;28;20523;-64
2022/03/03 03:15:33;;;;;;;23.17;17.40;;;-1.30;99.90;;;;;;5114006;28;20204;-65
2022/03/03 03:18:19;;;;;;;25.03;18.33;;;-1.30;99.90;;;;;;5113915;28;20165;-64
2022/03/03 03:20:47;;;;;;;26.77;17.40;;;-1.30;99.90;;;;;;5114154;28;20156;-64
2022/03/03 03:23:16;;;;;;;25.23;17.70;;;-1.30;99.90;;;;;;5113794;28;20173;-64
2022/03/03 03:25:44;;;;;;;24.27;17.37;;;-1.20;99.90;;;;;;5113730;28;20172;-64
2022/03/03 03:28:12;;;;;;;30.37;17.07;;;-1.20;99.90;;;;;;5113763;28;20203;-64
2022/03/03 03:30:38;;;;;;;23.77;17.50;;;-1.30;99.90;;;;;;5113553;28;20184;-64
2022/03/03 03:33:04;;;;;;;26.27;18.07;;;-1.40;99.90;;;;;;5112417;28;20181;-64
2022/03/03 03:35:30;;;;;;;23.67;17.87;;;-1.50;99.90;;;;;;5113986;28;20200;-65
2022/03/03 03:37:56;;;;;;;27.93;18.27;;;-1.40;99.90;;;;;;5113964;28;20168;-64
2022/03/03 03:40:22;;;;;;;20.97;16.47;;;-1.50;99.90;;;;;;5112262;28;20177;-64
2022/03/03 03:42:48;;;;;;;26.27;17.63;;;-1.60;99.90;;;;;;5113671;28;20545;-64
2022/03/03 03:45:14;;;;;;;22.10;17.40;;;-1.60;99.90;;;;;;5114093;28;20196;-65
2022/03/03 03:47:40;;;;;;;22.80;17.03;;;-1.60;99.90;;;;;;5113449;28;20183;-64
2022/03/03 03:50:09;;;;;;;21.57;17.50;;;-1.80;99.90;;;;;;5112577;28;20590;-65
2022/03/03 03:52:36;;;;;;;21.20;16.27;;;-1.90;99.90;;;;;;5112348;28;20708;-65
2022/03/03 03:55:04;;;;;;;23.37;16.67;;;-2.00;99.90;;;;;;5113351;28;20281;-65
2022/03/03 03:57:30;;;;;;;23.73;18.03;;;-2.10;99.90;;;;;;5113866;28;20165;-65
2022/03/03 03:59:55;;;;;;;24.90;17.63;;;-2.10;99.90;;;;;;5113637;28;20694;-65
2022/03/03 04:02:21;;;;;;;27.93;18.37;;;-2.10;99.90;;;;;;5113574;28;20200;-65
2022/03/03 04:04:47;;;;;;;24.27;17.23;;;-2.20;99.90;;;;;;5115496;28;20230;-65
2022/03/03 04:07:14;;;;;;;24.13;17.27;;;-2.30;99.90;;;;;;5117851;28;20535;-65
2022/03/03 04:09:39;;;;;;;26.73;17.77;;;-2.20;99.90;;;;;;5117212;28;20582;-65
2022/03/03 04:12:06;;;;;;;27.47;17.50;;;-2.10;99.90;;;;;;5117505;28;20164;-64
2022/03/03 04:14:32;;;;;;;25.67;18.07;;;-2.00;99.90;;;;;;5116906;28;20231;-64
2022/03/03 04:16:57;;;;;;;29.00;18.87;;;-2.00;99.90;;;;;;5116953;28;20637;-64
2022/03/03 04:19:23;;;;;;;24.27;17.17;;;-1.90;99.90;;;;;;5117480;28;20165;-64
2022/03/03 04:21:50;;;;;;;26.17;18.63;;;-1.90;99.90;;;;;;5117067;28;20173;-65
2022/03/03 04:24:16;;;;;;;21.83;17.50;;;-2.10;99.90;;;;;;5116768;28;20192;-64
2022/03/03 04:26:41;;;;;;;22.00;17.17;;;-2.10;99.90;;;;;;5115486;28;20229;-64
2022/03/03 04:29:07;;;;;;;23.50;17.60;;;-2.10;99.90;;;;;;5115394;28;20720;-64
2022/03/03 04:31:33;;;;;;;22.77;17.40;;;-2.10;99.90;;;;;;5116496;28;20184;-64
2022/03/03 04:33:58;;;;;;;25.40;17.03;;;-2.00;99.90;;;;;;5116795;28;20204;-64
2022/03/03 04:36:24;;;;;;;22.90;17.57;;;-1.90;99.90;;;;;;5116703;27;20168;-64
2022/03/03 04:38:50;;;;;;;25.77;18.03;;;-2.00;99.90;;;;;;5116485;28;20173;-65
2022/03/03 04:41:17;;;;;;;25.00;17.87;;;-2.10;99.90;;;;;;5116683;28;20169;-63
2022/03/03 04:43:42;;;;;;;28.07;18.43;;;-2.10;99.90;;;;;;5116448;28;20188;-63
2022/03/03 04:46:08;;;;;;;28.67;18.47;;;-2.00;99.90;;;;;;5116390;28;20579;-63
2022/03/03 04:48:35;;;;;;;23.30;17.83;;;-2.00;99.90;;;;;;5116763;28;20179;-62
2022/03/03 04:51:01;;;;;;;26.90;16.83;;;-1.90;99.90;;;;;;5117132;28;20149;-65
2022/03/03 04:53:28;;;;;;;23.83;17.97;;;-1.80;99.90;;;;;;5114887;28;20570;-65
2022/03/03 04:55:55;;;;;;;22.83;18.03;;;-2.00;99.90;;;;;;5116584;27;20251;-63
2022/03/03 04:58:21;;;;;;;25.33;17.60;;;-2.10;99.90;;;;;;5116563;28;20160;-63
2022/03/03 05:00:47;;;;;;;25.93;17.03;;;-2.20;99.90;;;;;;5116530;28;20171;-63
2022/03/03 05:03:14;;;;;;;27.40;17.80;;;-2.30;99.90;;;;;;5116022;27;20172;-63
2022/03/03 05:05:40;;;;;;;23.73;17.90;;;-2.30;99.90;;;;;;5116217;28;20202;-63
2022/03/03 05:08:05;;;;;;;28.73;18.70;;;-2.30;99.90;;;;;;5116367;28;20581;-63
2022/03/03 05:10:31;;;;;;;24.90;18.67;;;-2.40;99.90;;;;;;5115952;28;20172;-63
2022/03/03 05:12:57;;;;;;;21.47;16.77;;;-2.50;99.90;;;;;;5114550;28;20188;-63
2022/03/03 05:15:24;;;;;;;25.77;18.37;;;-2.50;99.90;;;;;;5115737;28;20214;-63
2022/03/03 05:17:49;;;;;;;25.97;18.27;;;-2.50;99.90;;;;;;5115817;28;20168;-63
2022/03/03 05:20:15;;;;;;;26.33;18.83;;;-2.50;99.90;;;;;;5115703;28;20181;-63
2022/03/03 05:22:41;;;;;;;25.47;17.73;;;-2.50;99.90;;;;;;5115779;28;20633;-63
2022/03/03 05:25:08;;;;;;;29.87;19.67;;;-2.50;99.90;;;;;;5115702;28;20229;-63
2022/03/03 05:27:34;;;;;;;30.03;17.77;;;-2.40;99.90;;;;;;5115670;28;20181;-63
2022/03/03 05:30:00;;;;;;;25.90;17.67;;;-2.30;99.90;;;;;;5115573;28;20188;-63
2022/03/03 05:32:26;;;;;;;28.30;18.63;;;-2.20;99.90;;;;;;5115327;27;20223;-62
2022/03/03 05:34:52;;;;;;;28.93;17.93;;;-2.10;99.90;;;;;;5115263;28;20231;-63
2022/03/03 05:37:22;;;;;;;32.27;19.67;;;-2.20;99.90;;;;;;5115078;28;20173;-63
2022/03/03 05:39:48;;;;;;;23.73;17.87;;;-2.30;99.90;;;;;;5115460;28;20243;-62
2022/03/03 05:42:15;;;;;;;26.37;17.93;;;-2.40;99.90;;;;;;5115110;28;20567;-62
2022/03/03 05:44:42;;;;;;;28.67;20.23;;;-2.30;99.90;;;;;;5114918;28;20227;-62
2022/03/03 05:47:08;;;;;;;28.00;20.27;;;-2.20;99.90;;;;;;5114984;28;20180;-62
2022/03/03 05:49:36;;;;;;;29.60;19.40;;;-2.30;99.90;;;;;;5114999;28;20188;-63
2022/03/03 05:52:02;;;;;;;27.20;18.17;;;-2.40;99.90;;;;;;5115340;28;20223;-62
2022/03/03 05:54:27;;;;;;;24.77;18.30;;;-2.50;99.90;;;;;;5113519;28;20212;-62
2022/03/03 05:56:54;;;;;;;29.70;20.00;;;-2.50;99.90;;;;;;5114853;28;20697;-62
2022/03/03 05:59:24;;;;;;;32.30;19.53;;;-2.70;99.90;;;;;;5115102;28;20172;-62
2022/03/03 06:01:50;;;;;;;26.93;19.43;;;-2.70;99.90;;;;;;5114727;28;20183;-62
2022/03/03 06:04:16;;;;;;;27.47;19.97;;;-2.70;99.90;;;;;;5114711;28;20200;-61
2022/03/03 06:06:57;;;;;;;30.83;19.50;;;-2.70;99.90;;;;;;5115170;28;20264;-62
2022/03/03 06:09:27;;;;;;;28.73;18.63;;;-2.70;99.90;;;;;;5115092;28;20165;-63
2022/03/03 06:11:57;;;;;;;28.70;20.03;;;-2.60;99.90;;;;;;5114700;28;20177;-62
2022/03/03 06:14:37;;;;;;;29.13;20.43;;;-2.60;99.90;;;;;;5114552;28;20200;-62
2022/03/03 06:17:04;;;;;;;37.53;20.30;;;-2.50;99.90;;;;;;5114594;28;20182;-63
2022/03/03 06:19:30;;;;;;;30.80;20.53;;;-2.50;99.90;;;;;;5114484;28;20207;-64
2022/03/03 06:21:56;;;;;;;32.27;20.27;;;-2.50;99.90;;;;;;5114407;28;20172;-64
2022/03/03 06:24:21;;;;;;;27.07;18.77;;;-2.60;99.90;;;;;;5114367;28;20197;-63
2022/03/03 06:26:48;;;;;;;27.00;19.00;;;-2.60;99.90;;;;;;5113977;28;20544;-63
2022/03/03 06:29:14;;;;;;;30.07;20.70;;;-2.60;99.90;;;;;;5114212;28;20175;-62
2022/03/03 06:31:40;;;;;;;26.20;19.27;;;-2.60;99.90;;;;;;5114093;28;20188;-62
2022/03/03 06:34:07;;;;;;;24.83;18.67;;;-2.50;99.90;;;;;;5114099;28;20279;-62
2022/03/03 06:36:33;;;;;;;26.87;17.83;;;-2.50;99.90;;;;;;5114179;28;20247;-62
2022/03/03 06:38:59;;;;;;;24.87;19.33;;;-2.50;99.90;;;;;;5114210;28;20164;-63
2022/03/03 06:41:26;;;;;;;24.17;17.87;;;-2.50;99.90;;;;;;5112747;28;20653;-63
2022/03/03 06:43:52;;;;;;;30.57;19.27;;;-2.50;99.90;;;;;;5114039;28;20192;-62
2022/03/03 06:46:18;;;;;;;26.03;18.83;;;-2.40;99.90;;;;;;5113998;28;20172;-63
2022/03/03 06:48:45;;;;;;;25.17;18.87;;;-2.30;99.90;;;;;;5114035;28;20217;-62
2022/03/03 06:51:17;;;;;;;27.87;18.43;;;-2.30;99.90;;;;;;5112677;28;20222;-63
2022/03/03 06:53:45;;;;;;;28.80;20.33;;;-2.30;99.90;;;;;;5114175;28;20196;-63
2022/03/03 06:56:15;;;;;;;28.27;19.83;;;-2.20;99.90;;;;;;5113925;28;20152;-63
2022/03/03 06:58:41;;;;;;;27.30;18.87;;;-2.20;99.90;;;;;;5114483;28;20168;-63
2022/03/03 07:01:09;;;;;;;27.40;19.43;;;-2.10;99.90;;;;;;5113176;28;20168;-63
2022/03/03 07:03:36;;;;;;;31.53;19.23;;;-2.10;99.90;;;;;;5114134;28;20187;-62
2022/03/03 07:06:03;;;;;;;27.67;18.83;;;-2.00;99.90;;;;;;5114133;28;20172;-62
2022/03/03 07:08:29;;;;;;;24.67;18.53;;;-1.90;99.90;;;;;;5113929;28;20172;-62
2022/03/03 07:10:55;;;;;;;31.63;19.97;;;-1.80;99.90;;;;;;5112715;28;20176;-61
2022/03/03 07:13:21;;;;;;;28.77;19.63;;;-1.70;99.90;;;;;;5113668;28;20265;-61
2022/03/03 07:15:53;;;;;;;26.77;19.37;;;-1.60;99.90;;;;;;5113763;28;20224;-61
2022/03/03 07:18:24;;;;;;;25.50;18.90;;;-1.40;99.90;;;;;;5113732;28;20240;-61
2022/03/03 07:21:09;;;;;;;27.63;18.67;;;-1.30;99.90;;;;;;5113662;28;20680;-62
2022/03/03 07:23:39;;;;;;;28.17;19.30;;;-1.20;99.90;;;;;;5112414;28;20199;-61
2022/03/03 07:26:11;;;;;;;32.20;18.93;;;-1.10;99.90;;;;;;5114482;28;20152;-62
2022/03/03 07:28:44;;;;;;;25.50;19.27;;;-1.00;99.90;;;;;;5114000;28;20179;-62
2022/03/03 07:31:11;;;;;;;26.00;19.67;;;-0.90;99.90;;;;;;5113871;28;20230;-62
2022/03/03 07:33:46;;;;;;;27.57;19.87;;;-0.70;99.90;;;;;;5112367;28;20427;-64
2022/03/03 07:36:18;;;;;;;27.33;20.23;;;-0.60;99.90;;;;;;5113683;28;20512;-64
2022/03/03 07:38:56;;;;;;;29.07;19.73;;;-0.50;99.90;;;;;;5113169;28;20633;-64
2022/03/03 07:41:25;;;;;;;27.77;20.57;;;-0.30;99.90;;;;;;5117760;28;20256;-63
2022/03/03 07:43:52;;;;;;;26.70;19.10;;;-0.10;99.90;;;;;;5117868;28;20208;-62
2022/03/03 07:46:17;;;;;;;28.30;19.90;;;0.30;99.90;;;;;;5118111;28;20609;-62
2022/03/03 07:48:46;;;;;;;28.50;19.77;;;0.90;99.90;;;;;;5117561;28;20176;-63
2022/03/03 07:51:12;;;;;;;30.20;19.53;;;2.00;99.90;;;;;;5116304;28;20219;-62
2022/03/03 07:53:39;;;;;;;27.20;18.53;;;3.40;99.90;;;;;;5117605;28;20200;-63
2022/03/03 07:56:08;;;;;;;24.30;17.30;;;4.40;99.90;;;;;;5117434;27;20180;-63
2022/03/03 07:58:46;;;;;;;23.60;17.77;;;5.30;99.90;;;;;;5116230;28;20180;-63
2022/03/03 08:01:17;;;;;;;19.50;15.97;;;5.60;99.90;;;;;;5117857;28;20153;-64
2022/03/03 08:03:45;;;;;;;22.77;16.63;;;5.50;99.90;;;;;;5117229;28;20192;-64
2022/03/03 08:06:13;;;;;;;21.40;15.83;;;5.10;99.90;;;;;;5117191;28;20168;-64
2022/03/03 08:08:40;;;;;;;21.40;16.77;;;4.90;99.90;;;;;;5117064;28;20660;-65
2022/03/03 08:11:08;;;;;;;23.23;15.10;;;4.50;99.90;;;;;;5115766;28;20176;-63
2022/03/03 08:13:35;;;;;;;21.90;16.50;;;4.10;99.90;;;;;;5116853;28;20283;-62
2022/03/03 08:16:01;;;;;;;23.17;16.50;;;3.80;99.90;;;;;;5116981;28;20241;-64
2022/03/03 08:18:32;;;;;;;19.73;15.63;;;3.60;99.90;;;;;;5115679;28;20536;-64
2022/03/03 08:21:02;;;;;;;23.57;15.73;;;3.50;99.90;;;;;;5116942;28;20180;-63
2022/03/03 08:23:30;;;;;;;22.13;14.93;;;3.30;99.90;;;;;;5117351;28;20215;-63
2022/03/03 08:25:57;;;;;;;20.03;15.10;;;3.50;99.90;;;;;;5117938;28;20203;-63
2022/03/03 08:28:24;;;;;;;17.93;14.37;;;4.20;99.90;;;;;;5117320;28;20172;-64
2022/03/03 08:31:07;;;;;;;21.27;14.73;;;5.80;99.90;;;;;;5115328;28;20203;-64
2022/03/03 08:33:39;;;;;;;17.93;13.50;;;7.60;99.90;;;;;;5115234;28;20579;-64
2022/03/03 08:36:20;;;;;;;19.65;13.43;;;8.60;99.90;;;;;;5116912;28;20161;-64
2022/03/03 08:38:56;;;;;;;15.75;13.07;;;10.20;99.90;;;;;;5116917;28;20160;-62
2022/03/03 08:41:23;;;;;;;16.83;12.70;;;10.60;99.90;;;;;;5116426;28;20180;-62
2022/03/03 08:43:51;;;;;;;22.20;14.98;;;11.50;99.90;;;;;;5116308;28;20283;-62
2022/03/03 08:46:22;;;;;;;15.68;12.65;;;12.70;99.90;;;;;;5116390;28;20164;-62
2022/03/03 08:48:49;;;;;;;15.57;12.32;;;12.40;99.90;;;;;;5116258;28;20164;-62
2022/03/03 08:51:18;;;;;;;19.00;13.65;;;12.10;99.90;;;;;;5115210;28;20169;-63
2022/03/03 08:53:47;;;;;;;19.95;13.23;;;11.90;99.90;;;;;;5114811;28;20211;-62
2022/03/03 08:56:13;;;;;;;20.23;12.88;;;12.00;99.90;;;;;;5116149;28;20180;-62
2022/03/03 08:58:40;;;;;;;18.77;13.07;;;11.80;99.90;;;;;;5116301;28;20221;-62
2022/03/03 09:01:05;;;;;;;15.20;11.93;;;11.70;99.90;;;;;;5115980;28;20172;-63
2022/03/03 09:03:32;;;;;;;17.48;13.18;;;12.00;99.90;;;;;;5115848;27;20188;-62
2022/03/03 09:05:58;;;;;;;15.95;13.15;;;12.30;99.90;;;;;;5114811;28;20183;-62
2022/03/03 09:08:24;;;;;;;16.48;13.25;;;12.00;99.90;;;;;;5114972;28;20547;-63
2022/03/03 09:10:50;;;;;;;16.27;12.48;;;11.80;99.90;;;;;;5115850;28;20168;-61
2022/03/03 09:13:16;;;;;;;15.18;13.00;;;11.80;99.90;;;;;;5115669;28;20302;-62
2022/03/03 09:15:43;;;;;;;16.10;12.98;;;11.70;99.90;;;;;;5115711;28;20566;-62
2022/03/03 09:18:08;;;;;;;16.35;12.60;;;11.70;99.90;;;;;;5115640;28;20247;-61
2022/03/03 09:20:35;;;;;;;14.43;12.40;;;11.80;99.90;;;;;;5115905;28;20668;-62
2022/03/03 09:23:02;;;;;;;17.63;13.80;;;11.30;99.90;;;;;;5115498;28;20645;-61
2022/03/03 09:25:28;;;;;;;19.10;13.68;;;10.80;99.90;;;;;;5116072;28;20221;-61
2022/03/03 09:27:54;;;;;;;15.13;12.60;;;10.50;99.90;;;;;;5115595;28;20183;-62
2022/03/03 09:30:21;;;;;;;15.43;13.07;;;10.10;99.90;;;;;;5115396;28;20259;-62
2022/03/03 09:32:47;;;;;;;16.08;12.55;;;9.70;99.90;;;;;;5115404;28;20656;-62
2022/03/03 09:35:13;;;;;;;15.18;12.80;;;9.40;99.90;;;;;;5115183;28;20196;-60
2022/03/03 09:37:39;;;;;;;17.30;13.40;;;9.00;99.90;;;;;;5115242;28;20698;-62
2022/03/03 09:40:07;;;;;;;16.52;12.93;;;8.70;99.90;;;;;;5115185;28;20211;-61
2022/03/03 09:42:34;;;;;;;16.20;13.13;;;8.60;99.90;;;;;;5115380;28;20197;-62
2022/03/03 09:45:10;;;;;;;17.30;13.40;;;8.50;99.90;;;;;;5115520;28;20237;-60
2022/03/03 09:47:37;;;;;;;19.77;13.60;;;8.30;99.90;;;;;;5115569;28;20157;-60
2022/03/03 09:50:05;;;;;;;18.37;13.67;;;8.30;99.90;;;;;;5115578;28;20206;-61
2022/03/03 09:52:31;;;;;;;16.67;12.97;;;8.20;99.90;;;;;;5114982;28;20176;-61
2022/03/03 09:54:57;;;;;;;22.07;13.47;;;8.20;99.90;;;;;;5115076;28;20207;-60
2022/03/03 09:57:24;;;;;;;16.93;13.10;;;8.30;99.90;;;;;;5114929;28;20168;-62
2022/03/03 09:59:52;;;;;;;16.77;13.47;;;8.30;99.90;;;;;;5114827;28;20214;-63
2022/03/03 10:02:18;;;;;;;21.13;13.50;;;8.30;99.90;;;;;;5114602;28;20172;-64
2022/03/03 10:04:44;;;;;;;18.63;12.70;;;8.30;99.90;;;;;;5113403;28;20210;-64
2022/03/03 10:07:11;;;;;;;18.97;14.23;;;8.40;99.90;;;;;;5114706;28;20169;-63
2022/03/03 10:12:23;;;;;;;19.53;13.47;;;8.60;99.90;;;;;;5115372;28;20198;-64
2022/03/03 10:14:50;;;;;;;19.17;13.67;;;8.80;99.90;;;;;;5113858;28;20204;-63
2022/03/03 10:17:16;;;;;;;20.43;13.00;;;8.80;99.90;;;;;;5113295;28;20168;-63
2022/03/03 10:19:54;;;;;;;18.33;12.57;;;9.00;99.90;;;;;;5113270;28;20176;-63
2022/03/03 10:22:24;;;;;;;14.60;11.90;;;9.00;99.90;;;;;;5114673;28;20159;-64
2022/03/03 10:24:51;;;;;;;15.47;11.03;;;9.10;99.90;;;;;;5114970;28;20188;-63
2022/03/03 10:27:19;;;;;;;15.60;11.50;;;9.20;99.90;;;;;;5114361;28;20252;-63
2022/03/03 10:29:48;;;;;;;13.67;10.23;;;9.30;99.90;;;;;;5114340;28;20172;-63
2022/03/03 10:32:23;;;;;;;15.00;11.10;;;9.30;99.90;;;;;;5114226;28;20188;-63
2022/03/03 10:34:53;;;;;;;14.13;10.47;;;9.40;99.90;;;;;;5114011;28;20203;-63
2022/03/03 10:37:22;;;;;;;13.53;11.23;;;9.40;99.90;;;;;;5114509;28;20165;-63
2022/03/03 10:39:55;;;;;;;15.27;11.60;;;9.40;99.90;;;;;;5112944;28;20176;-63
2022/03/03 10:42:23;;;;;;;13.63;11.13;;;9.60;99.90;;;;;;5114471;28;20160;-63
2022/03/03 10:45:03;;;;;;;16.50;11.93;;;9.60;99.90;;;;;;5112664;28;20657;-63
2022/03/03 10:47:29;;;;;;;13.70;11.33;;;9.70;99.90;;;;;;5112804;28;20172;-63
2022/03/03 10:49:57;;;;;;;15.93;11.17;;;9.90;99.90;;;;;;5114281;28;20188;-63
2022/03/03 10:52:28;;;;;;;12.40;10.40;;;10.10;99.90;;;;;;5113920;28;20164;-63
2022/03/03 10:54:57;;;;;;;16.73;11.30;;;10.20;99.90;;;;;;5112657;28;20546;-63
2022/03/03 10:57:44;;;;;;;17.63;11.77;;;10.30;99.90;;;;;;5114207;28;20237;-63
2022/03/03 11:00:20;;;;;;;15.57;11.27;;;10.40;99.90;;;;;;5112542;28;20157;-64
2022/03/03 11:02:51;;;;;;;15.43;11.43;;;10.60;99.90;;;;;;5113822;28;20152;-63
2022/03/03 11:05:18;;;;;;;12.77;11.00;;;10.90;99.90;;;;;;5113763;28;20279;-62
2022/03/03 11:07:46;;;;;;;16.03;11.43;;;11.10;99.90;;;;;;5114172;28;20173;-61
2022/03/03 11:10:18;;;;;;;15.17;12.27;;;11.20;99.90;;;;;;5114033;28;20176;-61
2022/03/03 11:12:45;;;;;;;12.87;10.90;;;11.20;99.90;;;;;;5114481;28;20243;-60
2022/03/03 11:15:13;;;;;;;18.50;12.60;;;11.20;99.90;;;;;;5116957;28;20200;-61
2022/03/03 11:17:39;;;;;;;18.23;12.73;;;11.10;99.90;;;;;;5117904;28;20172;-60
2022/03/03 11:20:07;;;;;;;17.25;11.93;;;11.10;99.90;;;;;;5117935;27;20630;-60
2022/03/03 11:22:34;;;;;;;19.23;12.23;;;11.40;99.90;;;;;;5118211;28;20253;-61
2022/03/03 11:25:04;;;;;;;15.73;12.75;;;11.60;99.90;;;;;;5116775;28;20246;-61
2022/03/03 11:27:37;;;;;;;17.20;12.98;;;11.60;99.90;;;;;;5116959;28;20577;-61
2022/03/03 11:30:27;;;;;;;15.07;13.07;;;11.70;99.90;;;;;;5117884;28;20156;-60
2022/03/03 11:33:43;;;;;;;15.65;12.23;;;11.70;99.90;;;;;;5116627;28;20179;-61
2022/03/03 11:36:17;;;;;;;15.50;12.63;;;12.10;99.90;;;;;;5109005;28;20192;-60
2022/03/03 11:38:54;;;;;;;18.02;13.30;;;12.20;99.90;;;;;;5118002;28;20257;-61
2022/03/03 11:41:25;;;;;;;18.65;13.38;;;12.40;99.90;;;;;;5117953;28;20209;-61
2022/03/03 11:44:02;;;;;;;16.92;12.60;;;12.60;99.90;;;;;;5117709;28;20275;-60
2022/03/03 11:46:48;;;;;;;20.15;13.55;;;12.70;99.90;;;;;;5117573;28;20195;-61
2022/03/03 11:49:27;;;;;;;18.15;12.98;;;12.90;99.90;;;;;;5118131;28;20165;-61
2022/03/03 11:51:57;;;;;;;18.00;12.98;;;13.00;99.90;;;;;;5118043;28;20153;-62
2022/03/03 11:54:31;;;;;;;18.67;13.48;;;13.30;99.90;;;;;;5117144;28;20301;-62
2022/03/03 11:57:06;;;;;;;15.23;12.38;;;13.40;99.90;;;;;;5118417;28;20689;-73
2022/03/03 11:59:34;;;;;;;17.80;13.20;;;13.60;99.90;;;;;;5116191;28;20195;-62
2022/03/03 12:02:00;;;;;;;18.75;13.38;;;13.80;99.70;;;;;;5117208;28;20169;-64
2022/03/03 12:04:27;;;;;;;15.32;12.48;;;13.90;99.80;;;;;;5116974;28;20228;-62
2022/03/03 12:06:55;;;;;;;16.73;12.07;;;14.10;99.00;;;;;;5117109;28;20168;-63
2022/03/03 12:09:25;;;;;;;17.05;12.23;;;14.40;98.90;;;;;;5115774;28;20176;-64
2022/03/03 12:12:16;;;;;;;15.30;11.85;;;14.60;98.70;;;;;;5117118;28;20180;-62
2022/03/03 12:15:00;;;;;;;17.02;12.63;;;14.90;98.10;;;;;;5116926;28;20192;-63
2022/03/03 12:17:44;;;;;;;15.70;12.52;;;15.10;97.10;;;;;;5116994;28;20169;-63
2022/03/03 12:20:30;;;;;;;16.73;11.75;;;15.40;96.70;;;;;;5115592;28;20165;-63
2022/03/03 12:23:02;;;;;;;15.40;11.32;;;15.60;94.70;;;;;;5117335;28;20155;-63
2022/03/03 12:25:59;;;;;;;17.60;11.45;;;15.80;93.60;;;;;;5116932;28;20173;-63
2022/03/03 12:28:34;;;;;;;15.57;11.30;;;15.90;93.20;;;;;;5116974;28;20190;-63
2022/03/03 12:31:02;;;;;;;18.35;11.43;;;16.10;94.80;;;;;;5116595;28;20184;-63
2022/03/03 12:33:31;;;;;;;15.20;11.55;;;16.20;92.00;;;;;;5115322;28;20204;-63
2022/03/03 12:36:05;;;;;;;14.55;11.15;;;16.40;91.50;;;;;;5116492;28;20276;-63